Terminal Aerodrome Forecast
Issued by NWS Memphis, TN

Home | Current Version | Previous Version | Text Only | Print | Product List | Glossary On
Versions: 1 2 3 4 5 6 7 8 9 10 11 12 13 14 15 16 17 18 19 20 21 22 23 24 25 26 27 28 29 30 31 32 33 34
000
FTUS44 KMEG 252248 AAD
TAFMEM
TAF AMD
KMEM 252248Z 2523/2618 28011KT P6SM VCSH BKN060
     FM260300 33014G22KT P6SM BKN018 OVC040
     FM261100 34010KT P6SM BKN022
     FM261700 33008KT P6SM SCT025 BKN050=

USA.gov is the U.S. government's official web portal to all federal, state and local government web resources and services.